createdAt,value
2017-05-25T00:00:18.043Z,0
2017-05-25T00:01:18.079Z,0
2017-05-25T00:02:18.108Z,0
2017-05-25T00:03:18.073Z,0
2017-05-25T00:04:18.164Z,0
2017-05-25T00:05:18.197Z,0
2017-05-25T00:06:17.907Z,0
2017-05-25T00:07:18.252Z,0
2017-05-25T00:08:18.534Z,0
2017-05-25T00:09:17.998Z,0
2017-05-25T00:10:18.014Z,0
2017-05-25T00:11:18.054Z,0
2017-05-25T00:12:18.393Z,0
2017-05-25T00:13:18.666Z,0
2017-05-25T00:14:18.143Z,0
2017-05-25T00:15:18.166Z,0
2017-05-25T00:16:18.196Z,0
2017-05-25T00:17:18.232Z,0
2017-05-25T00:18:18.193Z,0
2017-05-25T00:19:18.601Z,0
2017-05-25T00:20:18.612Z,0
2017-05-25T00:21:18.027Z,0
2017-05-25T00:22:18.680Z,0
2017-05-25T00:23:18.955Z,0
2017-05-25T00:24:18.738Z,0
2017-05-25T00:25:18.462Z,0
2017-05-25T00:26:18.795Z,0
2017-05-25T00:27:18.822Z,0
2017-05-25T00:28:19.109Z,0
2017-05-25T00:29:18.886Z,0
2017-05-25T00:30:18.910Z,0
2017-05-25T00:31:18.627Z,0
2017-05-25T00:32:18.656Z,0
2017-05-25T00:33:18.629Z,0
2017-05-25T00:34:18.712Z,0
2017-05-25T00:35:19.050Z,0
2017-05-25T00:36:18.488Z,0
2017-05-25T00:37:19.108Z,0
2017-05-25T00:38:19.035Z,0
2017-05-25T00:39:19.160Z,0
2017-05-25T00:40:18.882Z,0
2017-05-25T00:41:19.228Z,0
2017-05-25T00:42:19.260Z,0
2017-05-25T00:43:19.483Z,0
2017-05-25T00:44:19.327Z,0
2017-05-25T00:45:19.339Z,0
2017-05-25T00:46:18.738Z,0
2017-05-25T00:47:19.095Z,0
2017-05-25T00:48:18.800Z,0
2017-05-25T00:49:19.705Z,0
2017-05-25T00:50:19.167Z,0
2017-05-25T00:51:18.887Z,0
2017-05-25T00:52:19.229Z,0
2017-05-25T00:53:19.569Z,0
2017-05-25T00:54:19.850Z,0
2017-05-25T00:55:18.991Z,0
2017-05-25T00:56:19.655Z,0
2017-05-25T00:57:19.701Z,0
2017-05-25T00:58:19.708Z,0
2017-05-25T00:59:19.058Z,0
2017-05-25T01:00:19.457Z,0
2017-05-25T01:01:19.795Z,0
2017-05-25T01:02:19.847Z,0
2017-05-25T01:03:19.856Z,0
2017-05-25T01:04:19.833Z,0
2017-05-25T01:05:19.285Z,0
2017-05-25T01:06:19.934Z,0
2017-05-25T01:07:19.032Z,0
2017-05-25T01:08:19.685Z,0
2017-05-25T01:09:19.960Z,0
2017-05-25T01:10:19.742Z,0
2017-05-25T01:11:20.079Z,0
2017-05-25T01:12:19.487Z,0
2017-05-25T01:13:19.827Z,0
2017-05-25T01:14:20.361Z,0
2017-05-25T01:15:19.892Z,0
2017-05-25T01:16:19.915Z,0
2017-05-25T01:17:20.254Z,0
2017-05-25T01:18:20.292Z,0
2017-05-25T01:19:20.561Z,0
2017-05-25T01:20:20.334Z,0
2017-05-25T01:21:19.731Z,0
2017-05-25T01:22:20.081Z,0
2017-05-25T01:23:20.113Z,0
2017-05-25T01:24:20.666Z,0
2017-05-25T01:25:19.542Z,0
2017-05-25T01:26:20.508Z,0
2017-05-25T01:27:20.236Z,0
2017-05-25T01:28:20.573Z,0
2017-05-25T01:29:20.863Z,0
2017-05-25T01:30:19.999Z,0
2017-05-25T01:31:20.027Z,0
2017-05-25T01:32:20.056Z,0
2017-05-25T01:33:20.720Z,0
2017-05-25T01:34:20.360Z,0
2017-05-25T01:35:20.139Z,0
2017-05-25T01:36:20.482Z,0
2017-05-25T01:37:20.194Z,0
2017-05-25T01:38:20.862Z,0
2017-05-25T01:39:20.201Z,0
2017-05-25T01:40:20.593Z,0
2017-05-25T01:41:20.934Z,0
2017-05-25T01:42:20.972Z,0
2017-05-25T01:43:20.120Z,0
2017-05-25T01:44:20.963Z,0
2017-05-25T01:45:21.048Z,0
2017-05-25T01:46:20.771Z,0
2017-05-25T01:47:21.104Z,0
2017-05-25T01:48:21.150Z,0
2017-05-25T01:49:21.101Z,0
2017-05-25T01:50:21.194Z,0
2017-05-25T01:51:21.218Z,0
2017-05-25T01:52:20.629Z,0
2017-05-25T01:53:20.997Z,0
2017-05-25T01:54:21.570Z,0
2017-05-25T01:55:21.026Z,0
2017-05-25T01:56:21.046Z,0
2017-05-25T01:57:21.400Z,0
2017-05-25T01:58:21.423Z,0
2017-05-25T01:59:21.402Z,0
2017-05-25T02:00:21.178Z,0
2017-05-25T02:01:21.188Z,0
2017-05-25T02:02:21.229Z,0
2017-05-25T02:03:21.253Z,0
2017-05-25T02:04:21.478Z,0
2017-05-25T02:05:21.308Z,0
2017-05-25T02:06:21.700Z,0
2017-05-25T02:07:21.679Z,0
2017-05-25T02:08:21.397Z,0
2017-05-25T02:09:21.366Z,0
2017-05-25T02:10:21.134Z,0
2017-05-25T02:11:21.174Z,0
2017-05-25T02:12:21.828Z,0
2017-05-25T02:13:21.605Z,0
2017-05-25T02:14:21.817Z,0
2017-05-25T02:15:21.906Z,0
2017-05-25T02:16:21.936Z,0
2017-05-25T02:17:21.650Z,0
2017-05-25T02:18:21.678Z,0
2017-05-25T02:19:22.012Z,0
2017-05-25T02:20:21.743Z,0
2017-05-25T02:21:22.092Z,0
2017-05-25T02:22:22.104Z,0
2017-05-25T02:23:22.142Z,0
2017-05-25T02:24:22.411Z,0
2017-05-25T02:25:22.194Z,0
2017-05-25T02:26:22.220Z,0
2017-05-25T02:27:22.258Z,0
2017-05-25T02:28:22.273Z,0
2017-05-25T02:29:22.247Z,0
2017-05-25T02:30:22.336Z,0
2017-05-25T02:31:22.376Z,0
2017-05-25T02:32:22.081Z,0
2017-05-25T02:33:22.113Z,0
2017-05-25T02:34:22.383Z,0
2017-05-25T02:35:22.478Z,0
2017-05-25T02:36:22.504Z,0
2017-05-25T02:37:22.220Z,0
2017-05-25T02:38:22.553Z,0
2017-05-25T02:39:22.205Z,0
2017-05-25T02:40:21.995Z,0
2017-05-25T02:41:22.343Z,0
2017-05-25T02:42:22.680Z,0
2017-05-25T02:43:22.701Z,0
2017-05-25T02:44:22.666Z,0
2017-05-25T02:45:22.147Z,0
2017-05-25T02:46:22.480Z,0
2017-05-25T02:47:22.517Z,0
2017-05-25T02:48:22.544Z,0
2017-05-25T02:49:22.186Z,0
2017-05-25T02:50:22.902Z,0
2017-05-25T02:51:22.936Z,0
2017-05-25T02:52:22.961Z,0
2017-05-25T02:53:22.678Z,0
2017-05-25T02:54:21.772Z,0
2017-05-25T02:55:22.986Z,0
2017-05-25T02:56:23.092Z,0
2017-05-25T02:57:23.105Z,0
2017-05-25T02:58:23.127Z,0
2017-05-25T02:59:22.843Z,0
2017-05-25T03:00:23.439Z,0
2017-05-25T03:01:23.285Z,0
2017-05-25T03:02:22.956Z,0
2017-05-25T03:03:22.640Z,0
2017-05-25T03:04:22.991Z,0
2017-05-25T03:05:23.592Z,0
2017-05-25T03:06:23.042Z,0
2017-05-25T03:07:23.385Z,0
2017-05-25T03:08:22.788Z,0
2017-05-25T03:09:23.446Z,0
2017-05-25T03:10:23.714Z,0
2017-05-25T03:11:23.500Z,0
2017-05-25T03:12:23.524Z,0
2017-05-25T03:13:23.554Z,0
2017-05-25T03:14:23.589Z,0
2017-05-25T03:15:23.243Z,0
2017-05-25T03:16:23.643Z,0
2017-05-25T03:17:23.353Z,0
2017-05-25T03:18:23.407Z,0
2017-05-25T03:19:23.423Z,0
2017-05-25T03:20:23.706Z,0
2017-05-25T03:21:23.787Z,0
2017-05-25T03:22:23.500Z,0
2017-05-25T03:23:23.584Z,0
2017-05-25T03:24:23.559Z,0
2017-05-25T03:25:23.571Z,0
2017-05-25T03:26:22.992Z,0
2017-05-25T03:27:23.645Z,0
2017-05-25T03:28:23.344Z,0
2017-05-25T03:29:23.383Z,0
2017-05-25T03:30:23.985Z,0
2017-05-25T03:31:23.763Z,0
2017-05-25T03:32:24.093Z,0
2017-05-25T03:33:24.126Z,0
2017-05-25T03:34:23.838Z,0
2017-05-25T03:35:24.440Z,0
2017-05-25T03:36:23.904Z,0
2017-05-25T03:37:23.921Z,0
2017-05-25T03:38:23.949Z,0
2017-05-25T03:39:23.664Z,0
2017-05-25T03:40:24.567Z,0
2017-05-25T03:41:24.355Z,0
2017-05-25T03:42:23.743Z,0
2017-05-25T03:43:24.097Z,0
2017-05-25T03:44:24.126Z,0
2017-05-25T03:45:24.719Z,0
2017-05-25T03:46:24.180Z,0
2017-05-25T03:47:23.890Z,0
2017-05-25T03:48:24.230Z,0
2017-05-25T03:49:24.578Z,0
2017-05-25T03:50:24.855Z,0
2017-05-25T03:51:24.631Z,0
2017-05-25T03:52:24.665Z,0
2017-05-25T03:53:24.693Z,0
2017-05-25T03:54:24.411Z,0
2017-05-25T03:55:24.643Z,0
2017-05-25T03:56:24.775Z,0
2017-05-25T03:57:24.803Z,0
2017-05-25T03:58:24.846Z,0
2017-05-25T03:59:24.558Z,0
2017-05-25T04:00:24.511Z,0
2017-05-25T04:01:24.607Z,0
2017-05-25T04:02:24.632Z,0
2017-05-25T04:03:24.038Z,0
2017-05-25T04:04:24.699Z,0
2017-05-25T04:05:25.231Z,0
2017-05-25T04:06:25.055Z,0
2017-05-25T04:07:24.776Z,0
2017-05-25T04:08:24.813Z,0
2017-05-25T04:09:25.157Z,0
2017-05-25T04:10:25.410Z,0
2017-05-25T04:11:24.883Z,0
2017-05-25T04:12:25.231Z,0
2017-05-25T04:13:24.958Z,0
2017-05-25T04:14:25.285Z,0
2017-05-25T04:15:25.253Z,0
2017-05-25T04:16:25.031Z,0
2017-05-25T04:17:24.752Z,0
2017-05-25T04:18:24.775Z,0
2017-05-25T04:19:25.425Z,0
2017-05-25T04:20:25.079Z,0
2017-05-25T04:21:25.168Z,0
2017-05-25T04:22:25.200Z,0
2017-05-25T04:23:25.240Z,0
2017-05-25T04:24:25.578Z,0
2017-05-25T04:25:25.799Z,0
2017-05-25T04:26:24.999Z,0
2017-05-25T04:27:25.648Z,0
2017-05-25T04:28:25.681Z,0
2017-05-25T04:29:25.399Z,0
2017-05-25T04:30:25.358Z,0
2017-05-25T04:31:25.455Z,0
2017-05-25T04:32:25.789Z,5
2017-05-25T04:33:25.519Z,5
2017-05-25T04:34:25.542Z,5
2017-05-25T04:35:25.810Z,5
2017-05-25T04:36:25.907Z,5
2017-05-25T04:37:25.625Z,5
2017-05-25T04:38:25.973Z,5
2017-05-25T04:39:25.990Z,5
2017-05-25T04:40:25.963Z,5
2017-05-25T04:41:25.793Z,5
2017-05-25T04:42:25.770Z,5
2017-05-25T04:43:26.109Z,5
2017-05-25T04:44:25.510Z,5
2017-05-25T04:45:26.408Z,5
2017-05-25T04:46:25.251Z,5
2017-05-25T04:47:25.913Z,5
2017-05-25T04:48:26.249Z,5
2017-05-25T04:49:25.966Z,5
2017-05-25T04:50:25.683Z,5
2017-05-25T04:51:26.268Z,5
2017-05-25T04:52:26.045Z,5
2017-05-25T04:53:26.389Z,5
2017-05-25T04:54:26.098Z,5
2017-05-25T04:55:26.438Z,5
2017-05-25T04:56:26.728Z,5
2017-05-25T04:57:26.185Z,5
2017-05-25T04:58:25.593Z,5
2017-05-25T04:59:26.259Z,5
2017-05-25T05:00:26.266Z,5
2017-05-25T05:01:26.551Z,5
2017-05-25T05:02:26.645Z,5
2017-05-25T05:03:26.368Z,5
2017-05-25T05:04:26.087Z,5
2017-05-25T05:05:26.719Z,5
2017-05-25T05:06:26.636Z,5
2017-05-25T05:07:26.473Z,5
2017-05-25T05:08:26.496Z,5
2017-05-25T05:09:26.529Z,5
2017-05-25T05:10:26.558Z,5
2017-05-25T05:11:26.791Z,5
2017-05-25T05:12:26.303Z,5
2017-05-25T05:13:26.645Z,5
2017-05-25T05:14:26.978Z,5
2017-05-25T05:15:26.698Z,5
2017-05-25T05:16:27.292Z,10
2017-05-25T05:17:27.072Z,10
2017-05-25T05:18:27.102Z,10
2017-05-25T05:19:26.511Z,10
2017-05-25T05:20:27.153Z,10
2017-05-25T05:21:27.433Z,10
2017-05-25T05:22:27.204Z,10
2017-05-25T05:23:27.239Z,10
2017-05-25T05:24:26.955Z,10
2017-05-25T05:25:27.295Z,10
2017-05-25T05:26:26.896Z,10
2017-05-25T05:27:27.060Z,10
2017-05-25T05:28:26.443Z,10
2017-05-25T05:29:26.782Z,10
2017-05-25T05:30:27.439Z,10
2017-05-25T05:31:27.089Z,10
2017-05-25T05:32:27.181Z,10
2017-05-25T05:33:26.897Z,10
2017-05-25T05:34:26.923Z,10
2017-05-25T05:35:27.267Z,10
2017-05-25T05:36:27.800Z,10
2017-05-25T05:37:27.004Z,10
2017-05-25T05:38:27.666Z,10
2017-05-25T05:39:27.065Z,10
2017-05-25T05:40:27.091Z,10
2017-05-25T05:41:27.949Z,10
2017-05-25T05:42:27.774Z,10
2017-05-25T05:43:27.496Z,10
2017-05-25T05:44:27.513Z,10
2017-05-25T05:45:27.543Z,10
2017-05-25T05:46:27.774Z,10
2017-05-25T05:47:27.661Z,10
2017-05-25T05:48:27.321Z,10
2017-05-25T05:49:27.039Z,10
2017-05-25T05:50:27.690Z,10
2017-05-25T05:51:27.972Z,10
2017-05-25T05:52:28.062Z,10
2017-05-25T05:53:27.453Z,10
2017-05-25T05:54:28.123Z,10
2017-05-25T05:55:27.518Z,10
2017-05-25T05:56:28.420Z,10
2017-05-25T05:57:27.889Z,10
2017-05-25T05:58:28.230Z,10
2017-05-25T05:59:28.280Z,10
2017-05-25T06:00:28.287Z,10
2017-05-25T06:01:28.596Z,10
2017-05-25T06:02:28.022Z,10
2017-05-25T06:03:28.050Z,15
2017-05-25T06:04:28.398Z,15
2017-05-25T06:05:28.436Z,15
2017-05-25T06:06:28.652Z,15
2017-05-25T06:07:28.175Z,15
2017-05-25T06:08:27.577Z,15
2017-05-25T06:09:27.922Z,15
2017-05-25T06:10:28.252Z,15
2017-05-25T06:11:28.584Z,15
2017-05-25T06:12:28.313Z,15
2017-05-25T06:13:28.649Z,15
2017-05-25T06:14:28.067Z,15
2017-05-25T06:15:28.712Z,15
2017-05-25T06:16:28.420Z,15
2017-05-25T06:17:28.765Z,15
2017-05-25T06:18:28.506Z,15
2017-05-25T06:19:28.506Z,15
2017-05-25T06:20:28.843Z,15
2017-05-25T06:21:29.080Z,15
2017-05-25T06:22:28.898Z,15
2017-05-25T06:23:28.929Z,15
2017-05-25T06:24:28.965Z,15
2017-05-25T06:25:28.751Z,15
2017-05-25T06:26:28.972Z,15
2017-05-25T06:27:29.061Z,15
2017-05-25T06:28:28.781Z,15
2017-05-25T06:29:28.807Z,15
2017-05-25T06:30:28.524Z,15
2017-05-25T06:31:29.104Z,15
2017-05-25T06:32:29.186Z,15
2017-05-25T06:33:28.918Z,15
2017-05-25T06:34:28.627Z,15
2017-05-25T06:35:29.279Z,15
2017-05-25T06:36:29.249Z,15
2017-05-25T06:37:29.037Z,15
2017-05-25T06:38:28.738Z,15
2017-05-25T06:39:29.399Z,15
2017-05-25T06:40:29.431Z,15
2017-05-25T06:41:29.695Z,15
2017-05-25T06:42:29.169Z,15
2017-05-25T06:43:29.512Z,15
2017-05-25T06:44:28.912Z,15
2017-05-25T06:45:29.572Z,15
2017-05-25T06:46:29.847Z,15
2017-05-25T06:47:29.617Z,15
2017-05-25T06:48:29.650Z,15
2017-05-25T06:49:29.375Z,15
2017-05-25T06:50:29.707Z,15
2017-05-25T06:51:29.107Z,15
2017-05-25T06:52:29.965Z,15
2017-05-25T06:53:29.793Z,15
2017-05-25T06:54:29.515Z,15
2017-05-25T06:55:29.546Z,15
2017-05-25T06:56:29.877Z,15
2017-05-25T06:57:29.840Z,15
2017-05-25T06:58:29.625Z,15
2017-05-25T06:59:29.644Z,20
2017-05-25T07:00:29.995Z,20
2017-05-25T07:01:29.391Z,20
2017-05-25T07:02:29.613Z,20
2017-05-25T07:03:30.066Z,20
2017-05-25T07:04:30.107Z,20
2017-05-25T07:05:29.814Z,20
2017-05-25T07:06:29.851Z,20
2017-05-25T07:07:29.764Z,20
2017-05-25T07:08:29.907Z,15
2017-05-25T07:09:29.626Z,15
2017-05-25T07:10:30.335Z,15
2017-05-25T07:11:29.993Z,15
2017-05-25T07:12:30.274Z,15
2017-05-25T07:13:30.371Z,15
2017-05-25T07:14:30.075Z,15
2017-05-25T07:15:29.478Z,15
2017-05-25T07:16:30.457Z,15
2017-05-25T07:17:30.677Z,20
2017-05-25T07:18:30.190Z,20
2017-05-25T07:19:30.222Z,20
2017-05-25T07:20:29.938Z,20
2017-05-25T07:21:30.596Z,20
2017-05-25T07:22:30.505Z,20
2017-05-25T07:23:30.345Z,20
2017-05-25T07:24:30.706Z,20
2017-05-25T07:25:30.399Z,20
2017-05-25T07:26:30.427Z,20
2017-05-25T07:27:30.657Z,20
2017-05-25T07:28:30.181Z,20
2017-05-25T07:29:30.516Z,15
2017-05-25T07:30:30.544Z,15
2017-05-25T07:31:30.563Z,15
2017-05-25T07:32:31.110Z,20
2017-05-25T07:33:30.930Z,20
2017-05-25T07:34:30.963Z,20
2017-05-25T07:35:30.685Z,20
2017-05-25T07:36:31.021Z,20
2017-05-25T07:37:30.941Z,20
2017-05-25T07:38:30.769Z,20
2017-05-25T07:39:30.798Z,20
2017-05-25T07:40:31.135Z,20
2017-05-25T07:41:30.853Z,20
2017-05-25T07:42:30.500Z,20
2017-05-25T07:43:31.222Z,25
2017-05-25T07:44:30.946Z,25
2017-05-25T07:45:30.960Z,25
2017-05-25T07:46:31.309Z,20
2017-05-25T07:47:31.589Z,25
2017-05-25T07:48:31.365Z,25
2017-05-25T07:49:31.095Z,25
2017-05-25T07:50:31.436Z,20
2017-05-25T07:51:31.188Z,25
2017-05-25T07:52:31.689Z,25
2017-05-25T07:53:31.198Z,25
2017-05-25T07:54:31.531Z,25
2017-05-25T07:55:31.259Z,25
2017-05-25T07:56:30.972Z,25
2017-05-25T07:57:31.192Z,25
2017-05-25T07:58:31.019Z,25
2017-05-25T07:59:31.367Z,25
2017-05-25T08:00:31.455Z,25
2017-05-25T08:01:30.801Z,25
2017-05-25T08:02:32.021Z,25
2017-05-25T08:03:31.169Z,25
2017-05-25T08:04:31.518Z,25
2017-05-25T08:05:31.230Z,25
2017-05-25T08:06:31.572Z,25
2017-05-25T08:07:32.161Z,25
2017-05-25T08:08:31.314Z,25
2017-05-25T08:09:31.659Z,25
2017-05-25T08:10:31.999Z,25
2017-05-25T08:11:32.076Z,25
2017-05-25T08:12:31.633Z,25
2017-05-25T08:13:31.469Z,25
2017-05-25T08:14:31.803Z,30
2017-05-25T08:15:32.139Z,30
2017-05-25T08:16:31.861Z,30
2017-05-25T08:17:32.452Z,30
2017-05-25T08:18:32.241Z,30
2017-05-25T08:19:32.254Z,30
2017-05-25T08:20:32.285Z,30
2017-05-25T08:21:31.684Z,30
2017-05-25T08:22:31.924Z,25
2017-05-25T08:23:31.745Z,25
2017-05-25T08:24:32.095Z,25
2017-05-25T08:25:32.122Z,25
2017-05-25T08:26:31.829Z,25
2017-05-25T08:27:32.420Z,25
2017-05-25T08:28:32.206Z,25
2017-05-25T08:29:32.234Z,30
2017-05-25T08:30:32.262Z,30
2017-05-25T08:31:31.973Z,30
2017-05-25T08:32:32.257Z,30
2017-05-25T08:33:32.350Z,30
2017-05-25T08:34:32.061Z,30
2017-05-25T08:35:32.091Z,30
2017-05-25T08:36:32.738Z,30
2017-05-25T08:37:32.721Z,30
2017-05-25T08:38:32.810Z,30
2017-05-25T08:39:32.527Z,30
2017-05-25T08:40:32.551Z,30
2017-05-25T08:41:32.577Z,30
2017-05-25T08:42:32.866Z,30
2017-05-25T08:43:32.959Z,30
2017-05-25T08:44:32.673Z,30
2017-05-25T08:45:32.691Z,35
2017-05-25T08:46:33.035Z,35
2017-05-25T08:47:33.317Z,40
2017-05-25T08:48:32.790Z,35
2017-05-25T08:49:32.817Z,30
2017-05-25T08:50:32.215Z,25
2017-05-25T08:51:33.204Z,25
2017-05-25T08:52:32.587Z,25
2017-05-25T08:53:33.135Z,25
2017-05-25T08:54:33.271Z,30
2017-05-25T08:55:32.984Z,25
2017-05-25T08:56:33.032Z,30
2017-05-25T08:57:33.057Z,30
2017-05-25T08:58:33.641Z,30
2017-05-25T08:59:33.418Z,30
2017-05-25T09:00:32.847Z,30
2017-05-25T09:01:33.468Z,30
2017-05-25T09:02:33.509Z,30
2017-05-25T09:03:33.161Z,40
2017-05-25T09:04:33.563Z,50
2017-05-25T09:05:32.964Z,45
2017-05-25T09:06:33.303Z,45
2017-05-25T09:07:33.022Z,50
2017-05-25T09:08:33.930Z,50
2017-05-25T09:09:33.707Z,50
2017-05-25T09:10:33.736Z,45
2017-05-25T09:11:33.458Z,45
2017-05-25T09:12:33.796Z,55
2017-05-25T09:13:34.078Z,50
2017-05-25T09:14:33.846Z,45
2017-05-25T09:15:33.577Z,50
2017-05-25T09:16:33.596Z,50
2017-05-25T09:17:33.313Z,40
2017-05-25T09:18:33.610Z,35
2017-05-25T09:19:33.077Z,35
2017-05-25T09:20:33.720Z,35
2017-05-25T09:21:34.060Z,45
2017-05-25T09:22:33.772Z,40
2017-05-25T09:23:34.366Z,35
2017-05-25T09:24:34.147Z,35
2017-05-25T09:25:33.860Z,40
2017-05-25T09:26:33.892Z,50
2017-05-25T09:27:34.229Z,40
2017-05-25T09:28:34.235Z,40
2017-05-25T09:29:34.329Z,45
2017-05-25T09:30:33.379Z,45
2017-05-25T09:31:34.032Z,50
2017-05-25T09:32:34.377Z,50
2017-05-25T09:33:34.665Z,40
2017-05-25T09:34:34.447Z,40
2017-05-25T09:35:34.471Z,45
2017-05-25T09:36:34.183Z,45
2017-05-25T09:37:34.521Z,40
2017-05-25T09:38:33.933Z,40
2017-05-25T09:39:34.001Z,45
2017-05-25T09:40:33.674Z,55
2017-05-25T09:41:34.648Z,45
2017-05-25T09:42:34.714Z,40
2017-05-25T09:43:34.962Z,35
2017-05-25T09:44:34.119Z,35
2017-05-25T09:45:34.456Z,35
2017-05-25T09:46:34.476Z,30
2017-05-25T09:47:34.821Z,35
2017-05-25T09:48:34.773Z,35
2017-05-25T09:49:33.943Z,35
2017-05-25T09:50:34.590Z,40
2017-05-25T09:51:34.931Z,35
2017-05-25T09:52:34.966Z,40
2017-05-25T09:53:34.962Z,45
2017-05-25T09:54:35.018Z,55
2017-05-25T09:55:35.051Z,45
2017-05-25T09:56:34.762Z,35
2017-05-25T09:57:35.109Z,35
2017-05-25T09:58:35.400Z,40
2017-05-25T09:59:34.866Z,40
2017-05-25T10:00:34.579Z,50
2017-05-25T10:01:35.216Z,50
2017-05-25T10:02:35.275Z,50
2017-05-25T10:03:35.234Z,45
2017-05-25T10:04:35.002Z,45
2017-05-25T10:05:35.043Z,40
2017-05-25T10:06:35.063Z,40
2017-05-25T10:07:35.146Z,40
2017-05-25T10:08:35.395Z,40
2017-05-25T10:09:35.459Z,45
2017-05-25T10:10:35.490Z,40
2017-05-25T10:11:35.209Z,40
2017-05-25T10:12:35.245Z,45
2017-05-25T10:13:35.522Z,45
2017-05-25T10:14:35.303Z,45
2017-05-25T10:15:35.324Z,40
2017-05-25T10:16:35.098Z,40
2017-05-25T10:17:35.386Z,40
2017-05-25T10:18:35.979Z,45
2017-05-25T10:19:35.442Z,45
2017-05-25T10:20:35.473Z,45
2017-05-25T10:21:35.192Z,40
2017-05-25T10:22:35.848Z,40
2017-05-25T10:23:36.127Z,45
2017-05-25T10:24:35.587Z,40
2017-05-25T10:25:35.619Z,40
2017-05-25T10:26:35.656Z,40
2017-05-25T10:27:35.371Z,40
2017-05-25T10:28:35.958Z,40
2017-05-25T10:29:35.942Z,40
2017-05-25T10:30:35.764Z,40
2017-05-25T10:31:35.489Z,45
2017-05-25T10:32:36.129Z,45
2017-05-25T10:33:35.808Z,45
2017-05-25T10:34:36.202Z,40
2017-05-25T10:35:35.908Z,40
2017-05-25T10:36:35.945Z,40
2017-05-25T10:37:35.348Z,40
2017-05-25T10:38:36.566Z,40
2017-05-25T10:39:36.338Z,45
2017-05-25T10:40:36.059Z,40
2017-05-25T10:41:36.079Z,40
2017-05-25T10:42:36.116Z,40
2017-05-25T10:43:36.711Z,45
2017-05-25T10:44:36.491Z,45
2017-05-25T10:45:36.519Z,45
2017-05-25T10:46:36.552Z,45
2017-05-25T10:47:35.948Z,45
2017-05-25T10:48:36.541Z,45
2017-05-25T10:49:36.315Z,45
2017-05-25T10:50:36.667Z,45
2017-05-25T10:51:36.696Z,45
2017-05-25T10:52:36.733Z,45
2017-05-25T10:53:36.698Z,45
2017-05-25T10:54:36.169Z,45
2017-05-25T10:55:36.180Z,45
2017-05-25T10:56:36.839Z,45
2017-05-25T10:57:36.869Z,45
2017-05-25T10:58:36.526Z,40
2017-05-25T10:59:36.619Z,40
2017-05-25T11:00:36.345Z,40
2017-05-25T11:01:36.680Z,40
2017-05-25T11:02:36.700Z,40
2017-05-25T11:03:36.669Z,45
2017-05-25T11:04:36.773Z,45
2017-05-25T11:05:37.092Z,45
2017-05-25T11:06:36.196Z,45
2017-05-25T11:07:37.163Z,45
2017-05-25T11:08:36.501Z,50
2017-05-25T11:09:37.227Z,50
2017-05-25T11:10:36.652Z,50
2017-05-25T11:11:36.660Z,55
2017-05-25T11:12:37.313Z,55
2017-05-25T11:13:36.968Z,60
2017-05-25T11:14:37.371Z,65
2017-05-25T11:15:37.086Z,70
2017-05-25T11:16:37.433Z,75
2017-05-25T11:17:36.828Z,75
2017-05-25T11:18:37.429Z,80
2017-05-25T11:19:37.519Z,80
2017-05-25T11:20:37.548Z,75
2017-05-25T11:21:37.597Z,75
2017-05-25T11:22:37.613Z,80
2017-05-25T11:23:37.578Z,85
2017-05-25T11:24:37.662Z,85
2017-05-25T11:25:37.699Z,85
2017-05-25T11:26:37.419Z,90
2017-05-25T11:27:37.762Z,100
2017-05-25T11:28:38.042Z,135
2017-05-25T11:29:37.812Z,265
2017-05-25T11:30:37.237Z,330
2017-05-25T11:31:37.248Z,340
2017-05-25T11:32:37.941Z,335
2017-05-25T11:33:37.867Z,325
2017-05-25T11:34:37.968Z,330
2017-05-25T11:35:37.356Z,385
2017-05-25T11:36:37.999Z,445
2017-05-25T11:37:37.749Z,470
2017-05-25T11:38:38.010Z,460
2017-05-25T11:39:38.115Z,425
2017-05-25T11:40:37.839Z,435
2017-05-25T11:41:37.845Z,420
2017-05-25T11:42:37.889Z,385
2017-05-25T11:43:38.484Z,340
2017-05-25T11:44:37.640Z,335
2017-05-25T11:45:37.979Z,375
2017-05-25T11:46:37.702Z,405
2017-05-25T11:47:38.053Z,400
2017-05-25T11:48:38.297Z,415
2017-05-25T11:49:38.418Z,425
2017-05-25T11:50:37.820Z,430
2017-05-25T11:51:38.481Z,425
2017-05-25T11:52:38.193Z,370
2017-05-25T11:53:38.473Z,365
2017-05-25T11:54:38.257Z,350
2017-05-25T11:55:37.668Z,320
2017-05-25T11:56:38.328Z,330
2017-05-25T11:57:38.668Z,380
2017-05-25T11:58:38.531Z,360
2017-05-25T11:59:38.731Z,380
2017-05-25T12:00:38.756Z,395
2017-05-25T12:01:38.477Z,440
2017-05-25T12:02:38.818Z,420
2017-05-25T12:03:38.794Z,325
2017-05-25T12:04:38.888Z,310
2017-05-25T12:05:38.926Z,400
2017-05-25T12:06:38.637Z,420
2017-05-25T12:07:39.002Z,385
2017-05-25T12:08:38.973Z,390
2017-05-25T12:09:39.064Z,365
2017-05-25T12:10:38.777Z,320
2017-05-25T12:11:38.489Z,370
2017-05-25T12:12:38.841Z,365
2017-05-25T12:13:39.069Z,370
2017-05-25T12:14:38.902Z,380
2017-05-25T12:15:38.947Z,425
2017-05-25T12:16:39.031Z,520
2017-05-25T12:17:39.008Z,510
2017-05-25T12:18:39.596Z,585
2017-05-25T12:19:38.447Z,590
2017-05-25T12:20:39.096Z,490
2017-05-25T12:21:39.448Z,445
2017-05-25T12:22:39.482Z,405
2017-05-25T12:23:39.769Z,410
2017-05-25T12:24:39.547Z,455
2017-05-25T12:25:39.260Z,450
2017-05-25T12:26:39.612Z,560
2017-05-25T12:27:39.645Z,555
2017-05-25T12:28:39.614Z,450
2017-05-25T12:29:39.424Z,460
2017-05-25T12:30:39.745Z,475
2017-05-25T12:31:39.463Z,670
2017-05-25T12:32:39.501Z,690
2017-05-25T12:33:39.820Z,625
2017-05-25T12:34:39.263Z,585
2017-05-25T12:35:39.298Z,690
2017-05-25T12:36:39.960Z,860
2017-05-25T12:37:39.682Z,895
2017-05-25T12:38:39.646Z,710
2017-05-25T12:39:40.066Z,1025
2017-05-25T12:40:40.099Z,1090
2017-05-25T12:41:39.808Z,940
2017-05-25T12:42:40.162Z,955
2017-05-25T12:43:40.449Z,985
2017-05-25T12:44:39.606Z,985
2017-05-25T12:45:39.956Z,965
2017-05-25T12:46:40.301Z,885
2017-05-25T12:47:40.360Z,935
2017-05-25T12:48:39.746Z,940
2017-05-25T12:49:40.290Z,865
2017-05-25T12:50:39.824Z,825
2017-05-25T12:51:40.162Z,855
2017-05-25T12:52:40.199Z,800
2017-05-25T12:53:40.540Z,730
2017-05-25T12:54:40.828Z,700
2017-05-25T12:55:40.312Z,895
2017-05-25T12:56:40.021Z,1110
2017-05-25T12:57:40.362Z,1220
2017-05-25T12:58:40.409Z,1065
2017-05-25T12:59:40.372Z,1010
2017-05-25T13:00:40.778Z,935
2017-05-25T13:01:40.829Z,975
2017-05-25T13:02:40.865Z,1025
2017-05-25T13:03:40.590Z,1150
2017-05-25T13:04:40.510Z,1245
2017-05-25T13:05:40.955Z,1220
2017-05-25T13:06:41.004Z,1200
2017-05-25T13:07:40.106Z,1020
2017-05-25T13:08:41.068Z,950
2017-05-25T13:09:40.368Z,1050
2017-05-25T13:10:41.139Z,1255
2017-05-25T13:11:40.857Z,1195
2017-05-25T13:12:40.885Z,1175
2017-05-25T13:13:40.928Z,1155
2017-05-25T13:14:40.915Z,1115
2017-05-25T13:15:41.307Z,1185
2017-05-25T13:16:41.031Z,1170
2017-05-25T13:17:41.391Z,1110
2017-05-25T13:18:40.796Z,1085
2017-05-25T13:19:41.454Z,1045
2017-05-25T13:20:40.863Z,1005
2017-05-25T13:21:40.592Z,1030
2017-05-25T13:22:41.249Z,995
2017-05-25T13:23:41.291Z,840
2017-05-25T13:24:41.882Z,770
2017-05-25T13:25:41.669Z,820
2017-05-25T13:26:41.696Z,865
2017-05-25T13:27:41.435Z,800
2017-05-25T13:28:41.462Z,790
2017-05-25T13:29:42.000Z,825
2017-05-25T13:30:41.523Z,685
2017-05-25T13:31:41.876Z,630
2017-05-25T13:32:41.598Z,570
2017-05-25T13:33:41.945Z,490
2017-05-25T13:34:41.986Z,505
2017-05-25T13:35:41.716Z,560
2017-05-25T13:36:41.716Z,535
2017-05-25T13:37:41.778Z,545
2017-05-25T13:38:42.174Z,590
2017-05-25T13:39:41.782Z,530
2017-05-25T13:40:41.880Z,540
2017-05-25T13:41:42.221Z,540
2017-05-25T13:42:41.952Z,445
2017-05-25T13:43:41.990Z,345
2017-05-25T13:44:42.588Z,355
2017-05-25T13:45:42.365Z,395
2017-05-25T13:46:42.408Z,415
2017-05-25T13:47:42.448Z,425
2017-05-25T13:48:42.479Z,400
2017-05-25T13:49:42.764Z,360
2017-05-25T13:50:42.235Z,335
2017-05-25T13:51:42.574Z,345
2017-05-25T13:52:42.622Z,335
2017-05-25T13:53:42.083Z,295
2017-05-25T13:54:42.886Z,260
2017-05-25T13:55:42.500Z,240
2017-05-25T13:56:42.438Z,225
2017-05-25T13:57:41.546Z,215
2017-05-25T13:58:42.527Z,215
2017-05-25T13:59:43.212Z,215
2017-05-25T14:00:42.584Z,225
2017-05-25T14:01:42.306Z,225
2017-05-25T14:02:42.657Z,205
2017-05-25T14:03:42.386Z,190
2017-05-25T14:04:42.972Z,190
2017-05-25T14:05:42.761Z,195
2017-05-25T14:06:42.830Z,190
2017-05-25T14:07:42.510Z,185
2017-05-25T14:08:42.859Z,180
2017-05-25T14:10:43.224Z,175
2017-05-25T14:11:43.273Z,155
2017-05-25T14:12:42.990Z,140
2017-05-25T14:13:43.343Z,135
2017-05-25T14:14:43.628Z,135
2017-05-25T14:15:43.108Z,130
2017-05-25T14:16:43.130Z,130
2017-05-25T14:17:42.858Z,130
2017-05-25T14:18:43.510Z,125
2017-05-25T14:19:43.482Z,125
2017-05-25T14:20:43.577Z,125